sensor_id;sensor_type;location;lat;lon;timestamp;P1;durP1;ratioP1;P2;durP2;ratioP2
16407;SDS011;8313;49.894;8.084;2023-06-10T00:02:07;11.33;;;10.17;;
16407;SDS011;8313;49.894;8.084;2023-06-10T00:04:33;10.23;;;9.30;;
16407;SDS011;8313;49.894;8.084;2023-06-10T00:07:01;10.63;;;9.57;;
16407;SDS011;8313;49.894;8.084;2023-06-10T00:09:36;10.63;;;9.63;;
16407;SDS011;8313;49.894;8.084;2023-06-10T00:12:05;10.43;;;9.53;;
16407;SDS011;8313;49.894;8.084;2023-06-10T00:14:32;10.37;;;9.57;;
16407;SDS011;8313;49.894;8.084;2023-06-10T00:16:58;9.93;;;9.03;;
16407;SDS011;8313;49.894;8.084;2023-06-10T00:19:24;10.57;;;9.57;;
16407;SDS011;8313;49.894;8.084;2023-06-10T00:21:55;10.60;;;9.73;;
16407;SDS011;8313;49.894;8.084;2023-06-10T00:24:21;11.53;;;10.33;;
16407;SDS011;8313;49.894;8.084;2023-06-10T00:26:48;11.30;;;10.10;;
16407;SDS011;8313;49.894;8.084;2023-06-10T00:29:13;11.07;;;10.10;;
16407;SDS011;8313;49.894;8.084;2023-06-10T00:31:40;10.80;;;9.77;;
16407;SDS011;8313;49.894;8.084;2023-06-10T00:34:08;10.43;;;9.50;;
16407;SDS011;8313;49.894;8.084;2023-06-10T00:36:34;13.20;;;9.50;;
16407;SDS011;8313;49.894;8.084;2023-06-10T00:39:01;10.70;;;9.70;;
16407;SDS011;8313;49.894;8.084;2023-06-10T00:41:28;10.70;;;9.60;;
16407;SDS011;8313;49.894;8.084;2023-06-10T00:43:54;10.80;;;9.83;;
16407;SDS011;8313;49.894;8.084;2023-06-10T00:46:20;9.93;;;9.10;;
16407;SDS011;8313;49.894;8.084;2023-06-10T00:48:47;10.87;;;9.77;;
16407;SDS011;8313;49.894;8.084;2023-06-10T00:51:12;11.27;;;9.90;;
16407;SDS011;8313;49.894;8.084;2023-06-10T00:53:39;10.60;;;9.70;;
16407;SDS011;8313;49.894;8.084;2023-06-10T00:56:06;10.40;;;9.50;;
16407;SDS011;8313;49.894;8.084;2023-06-10T00:58:34;11.13;;;9.80;;
16407;SDS011;8313;49.894;8.084;2023-06-10T01:01:01;10.00;;;9.20;;
16407;SDS011;8313;49.894;8.084;2023-06-10T01:03:27;11.20;;;10.10;;
16407;SDS011;8313;49.894;8.084;2023-06-10T01:09:08;12.90;;;10.00;;
16407;SDS011;8313;49.894;8.084;2023-06-10T01:11:52;9.80;;;8.80;;
16407;SDS011;8313;49.894;8.084;2023-06-10T01:14:25;10.80;;;9.80;;
16407;SDS011;8313;49.894;8.084;2023-06-10T01:16:51;10.50;;;9.60;;
16407;SDS011;8313;49.894;8.084;2023-06-10T01:19:20;11.83;;;10.17;;
16407;SDS011;8313;49.894;8.084;2023-06-10T01:21:49;10.77;;;9.63;;
16407;SDS011;8313;49.894;8.084;2023-06-10T01:24:17;10.10;;;9.20;;
16407;SDS011;8313;49.894;8.084;2023-06-10T01:26:44;9.73;;;8.80;;
16407;SDS011;8313;49.894;8.084;2023-06-10T01:29:18;11.07;;;10.00;;
16407;SDS011;8313;49.894;8.084;2023-06-10T01:31:49;11.37;;;10.20;;
16407;SDS011;8313;49.894;8.084;2023-06-10T01:34:23;11.37;;;10.27;;
16407;SDS011;8313;49.894;8.084;2023-06-10T01:36:49;11.33;;;10.23;;
16407;SDS011;8313;49.894;8.084;2023-06-10T01:39:16;11.10;;;10.10;;
16407;SDS011;8313;49.894;8.084;2023-06-10T01:41:45;10.10;;;9.20;;
16407;SDS011;8313;49.894;8.084;2023-06-10T01:44:12;11.23;;;10.20;;
16407;SDS011;8313;49.894;8.084;2023-06-10T01:46:46;10.50;;;9.60;;
16407;SDS011;8313;49.894;8.084;2023-06-10T01:49:12;12.17;;;10.97;;
16407;SDS011;8313;49.894;8.084;2023-06-10T01:51:38;12.57;;;11.30;;
16407;SDS011;8313;49.894;8.084;2023-06-10T01:54:06;10.93;;;10.03;;
16407;SDS011;8313;49.894;8.084;2023-06-10T01:56:32;10.30;;;9.30;;
16407;SDS011;8313;49.894;8.084;2023-06-10T01:58:58;11.03;;;9.93;;
16407;SDS011;8313;49.894;8.084;2023-06-10T02:01:26;12.03;;;10.87;;
16407;SDS011;8313;49.894;8.084;2023-06-10T02:03:52;11.60;;;9.90;;
16407;SDS011;8313;49.894;8.084;2023-06-10T02:06:18;10.77;;;9.77;;
16407;SDS011;8313;49.894;8.084;2023-06-10T02:08:44;10.83;;;9.77;;
16407;SDS011;8313;49.894;8.084;2023-06-10T02:11:09;10.97;;;9.97;;
16407;SDS011;8313;49.894;8.084;2023-06-10T02:13:35;9.77;;;8.70;;
16407;SDS011;8313;49.894;8.084;2023-06-10T02:16:01;10.30;;;9.30;;
16407;SDS011;8313;49.894;8.084;2023-06-10T02:18:28;11.00;;;10.10;;
16407;SDS011;8313;49.894;8.084;2023-06-10T02:20:54;10.87;;;9.57;;
16407;SDS011;8313;49.894;8.084;2023-06-10T02:23:19;11.40;;;10.37;;
16407;SDS011;8313;49.894;8.084;2023-06-10T02:25:45;10.47;;;9.37;;
16407;SDS011;8313;49.894;8.084;2023-06-10T02:28:12;10.23;;;9.30;;
16407;SDS011;8313;49.894;8.084;2023-06-10T02:30:39;10.97;;;9.87;;
16407;SDS011;8313;49.894;8.084;2023-06-10T02:33:07;11.10;;;9.50;;
16407;SDS011;8313;49.894;8.084;2023-06-10T02:35:36;11.37;;;10.27;;
16407;SDS011;8313;49.894;8.084;2023-06-10T02:38:03;12.03;;;10.80;;
16407;SDS011;8313;49.894;8.084;2023-06-10T02:40:30;13.97;;;10.27;;
16407;SDS011;8313;49.894;8.084;2023-06-10T02:42:56;11.33;;;10.30;;
16407;SDS011;8313;49.894;8.084;2023-06-10T02:45:23;11.57;;;10.47;;
16407;SDS011;8313;49.894;8.084;2023-06-10T02:47:50;12.40;;;9.63;;
16407;SDS011;8313;49.894;8.084;2023-06-10T02:50:15;10.53;;;9.63;;
16407;SDS011;8313;49.894;8.084;2023-06-10T02:52:51;11.03;;;10.03;;
16407;SDS011;8313;49.894;8.084;2023-06-10T02:55:17;11.00;;;9.90;;
16407;SDS011;8313;49.894;8.084;2023-06-10T02:57:48;10.43;;;9.20;;
16407;SDS011;8313;49.894;8.084;2023-06-10T03:00:15;13.17;;;10.53;;
16407;SDS011;8313;49.894;8.084;2023-06-10T03:02:42;10.93;;;9.83;;
16407;SDS011;8313;49.894;8.084;2023-06-10T03:05:11;11.27;;;9.83;;
16407;SDS011;8313;49.894;8.084;2023-06-10T03:07:41;11.53;;;10.53;;
16407;SDS011;8313;49.894;8.084;2023-06-10T03:10:06;11.30;;;9.93;;
16407;SDS011;8313;49.894;8.084;2023-06-10T03:12:34;14.83;;;9.80;;
16407;SDS011;8313;49.894;8.084;2023-06-10T03:14:59;9.53;;;8.70;;
16407;SDS011;8313;49.894;8.084;2023-06-10T03:17:27;10.43;;;9.30;;
16407;SDS011;8313;49.894;8.084;2023-06-10T03:19:53;10.60;;;9.57;;
16407;SDS011;8313;49.894;8.084;2023-06-10T03:22:18;10.60;;;9.60;;
16407;SDS011;8313;49.894;8.084;2023-06-10T03:24:58;10.03;;;9.00;;
16407;SDS011;8313;49.894;8.084;2023-06-10T03:27:26;9.30;;;8.37;;
16407;SDS011;8313;49.894;8.084;2023-06-10T03:29:54;11.27;;;10.07;;
16407;SDS011;8313;49.894;8.084;2023-06-10T03:32:21;9.73;;;8.83;;
16407;SDS011;8313;49.894;8.084;2023-06-10T03:34:46;11.13;;;8.80;;
16407;SDS011;8313;49.894;8.084;2023-06-10T03:37:13;10.00;;;9.03;;
16407;SDS011;8313;49.894;8.084;2023-06-10T03:39:40;9.67;;;8.77;;
16407;SDS011;8313;49.894;8.084;2023-06-10T03:42:06;10.40;;;9.40;;
16407;SDS011;8313;49.894;8.084;2023-06-10T03:44:32;9.70;;;8.80;;
16407;SDS011;8313;49.894;8.084;2023-06-10T03:46:59;9.10;;;8.20;;
16407;SDS011;8313;49.894;8.084;2023-06-10T03:49:25;10.50;;;9.50;;
16407;SDS011;8313;49.894;8.084;2023-06-10T03:51:55;9.30;;;8.40;;
16407;SDS011;8313;49.894;8.084;2023-06-10T03:54:21;9.13;;;8.33;;
16407;SDS011;8313;49.894;8.084;2023-06-10T03:56:47;9.30;;;7.57;;
16407;SDS011;8313;49.894;8.084;2023-06-10T03:59:13;8.47;;;7.77;;
16407;SDS011;8313;49.894;8.084;2023-06-10T04:01:39;11.60;;;9.80;;
16407;SDS011;8313;49.894;8.084;2023-06-10T04:04:06;9.20;;;8.00;;
16407;SDS011;8313;49.894;8.084;2023-06-10T04:06:33;9.37;;;8.47;;
16407;SDS011;8313;49.894;8.084;2023-06-10T04:08:59;9.07;;;8.17;;
16407;SDS011;8313;49.894;8.084;2023-06-10T04:11:26;8.90;;;8.00;;
16407;SDS011;8313;49.894;8.084;2023-06-10T04:13:52;9.63;;;8.40;;
16407;SDS011;8313;49.894;8.084;2023-06-10T04:16:18;10.30;;;8.87;;
16407;SDS011;8313;49.894;8.084;2023-06-10T04:18:46;9.30;;;8.40;;
16407;SDS011;8313;49.894;8.084;2023-06-10T04:21:12;8.93;;;8.13;;
16407;SDS011;8313;49.894;8.084;2023-06-10T04:23:37;10.27;;;7.77;;
16407;SDS011;8313;49.894;8.084;2023-06-10T04:26:04;9.83;;;8.93;;
16407;SDS011;8313;49.894;8.084;2023-06-10T04:28:31;10.43;;;8.27;;
16407;SDS011;8313;49.894;8.084;2023-06-10T04:30:57;8.80;;;8.00;;
16407;SDS011;8313;49.894;8.084;2023-06-10T04:33:23;9.57;;;8.60;;
16407;SDS011;8313;49.894;8.084;2023-06-10T04:35:49;8.77;;;7.87;;
16407;SDS011;8313;49.894;8.084;2023-06-10T04:38:17;7.83;;;7.13;;
16407;SDS011;8313;49.894;8.084;2023-06-10T04:40:43;9.93;;;8.17;;
16407;SDS011;8313;49.894;8.084;2023-06-10T04:43:11;8.33;;;7.50;;
16407;SDS011;8313;49.894;8.084;2023-06-10T04:45:37;11.10;;;7.40;;
16407;SDS011;8313;49.894;8.084;2023-06-10T04:48:02;6.73;;;6.10;;
16407;SDS011;8313;49.894;8.084;2023-06-10T04:50:28;8.80;;;7.30;;
16407;SDS011;8313;49.894;8.084;2023-06-10T04:52:54;7.57;;;6.87;;
16407;SDS011;8313;49.894;8.084;2023-06-10T04:55:22;8.40;;;7.67;;
16407;SDS011;8313;49.894;8.084;2023-06-10T04:57:48;7.40;;;6.70;;
16407;SDS011;8313;49.894;8.084;2023-06-10T05:00:14;9.40;;;7.03;;
16407;SDS011;8313;49.894;8.084;2023-06-10T05:02:39;7.93;;;7.13;;
16407;SDS011;8313;49.894;8.084;2023-06-10T05:05:05;7.47;;;6.77;;
16407;SDS011;8313;49.894;8.084;2023-06-10T05:07:31;7.80;;;7.00;;
16407;SDS011;8313;49.894;8.084;2023-06-10T05:09:57;8.40;;;7.13;;
16407;SDS011;8313;49.894;8.084;2023-06-10T05:12:22;8.30;;;7.37;;
16407;SDS011;8313;49.894;8.084;2023-06-10T05:14:48;7.87;;;7.17;;
16407;SDS011;8313;49.894;8.084;2023-06-10T05:17:14;7.83;;;7.03;;
16407;SDS011;8313;49.894;8.084;2023-06-10T05:19:39;7.93;;;7.23;;
16407;SDS011;8313;49.894;8.084;2023-06-10T05:22:06;7.17;;;6.47;;
16407;SDS011;8313;49.894;8.084;2023-06-10T05:24:32;8.13;;;7.30;;
16407;SDS011;8313;49.894;8.084;2023-06-10T05:26:57;8.33;;;7.07;;
16407;SDS011;8313;49.894;8.084;2023-06-10T05:29:23;8.07;;;7.10;;
16407;SDS011;8313;49.894;8.084;2023-06-10T05:31:49;8.53;;;6.60;;
16407;SDS011;8313;49.894;8.084;2023-06-10T05:34:14;8.10;;;7.30;;
16407;SDS011;8313;49.894;8.084;2023-06-10T05:36:40;10.00;;;7.50;;
16407;SDS011;8313;49.894;8.084;2023-06-10T05:39:05;7.33;;;6.73;;
16407;SDS011;8313;49.894;8.084;2023-06-10T05:41:31;8.57;;;7.67;;
16407;SDS011;8313;49.894;8.084;2023-06-10T05:43:57;6.80;;;6.20;;
16407;SDS011;8313;49.894;8.084;2023-06-10T05:46:22;8.50;;;7.13;;
16407;SDS011;8313;49.894;8.084;2023-06-10T05:48:49;7.30;;;6.60;;
16407;SDS011;8313;49.894;8.084;2023-06-10T05:51:14;7.50;;;6.90;;
16407;SDS011;8313;49.894;8.084;2023-06-10T05:53:40;7.60;;;6.73;;
16407;SDS011;8313;49.894;8.084;2023-06-10T05:56:05;6.77;;;6.17;;
16407;SDS011;8313;49.894;8.084;2023-06-10T05:58:31;8.33;;;6.00;;
16407;SDS011;8313;49.894;8.084;2023-06-10T06:00:57;8.10;;;7.30;;
16407;SDS011;8313;49.894;8.084;2023-06-10T06:03:22;7.43;;;6.73;;
16407;SDS011;8313;49.894;8.084;2023-06-10T06:05:48;6.80;;;6.20;;
16407;SDS011;8313;49.894;8.084;2023-06-10T06:08:14;9.37;;;7.53;;
16407;SDS011;8313;49.894;8.084;2023-06-10T06:10:42;7.53;;;6.83;;
16407;SDS011;8313;49.894;8.084;2023-06-10T06:13:08;7.90;;;7.20;;
16407;SDS011;8313;49.894;8.084;2023-06-10T06:15:34;7.80;;;7.10;;
16407;SDS011;8313;49.894;8.084;2023-06-10T06:17:59;7.37;;;6.77;;
16407;SDS011;8313;49.894;8.084;2023-06-10T06:20:25;7.53;;;6.77;;
16407;SDS011;8313;49.894;8.084;2023-06-10T06:22:50;8.10;;;7.30;;
16407;SDS011;8313;49.894;8.084;2023-06-10T06:25:16;7.83;;;7.10;;
16407;SDS011;8313;49.894;8.084;2023-06-10T06:27:42;8.07;;;6.83;;
16407;SDS011;8313;49.894;8.084;2023-06-10T06:30:08;8.63;;;7.23;;
16407;SDS011;8313;49.894;8.084;2023-06-10T06:32:34;9.20;;;8.27;;
16407;SDS011;8313;49.894;8.084;2023-06-10T06:34:59;7.13;;;6.53;;
16407;SDS011;8313;49.894;8.084;2023-06-10T06:37:25;8.27;;;7.43;;
16407;SDS011;8313;49.894;8.084;2023-06-10T06:40:02;8.23;;;7.60;;
16407;SDS011;8313;49.894;8.084;2023-06-10T06:42:28;8.00;;;7.20;;
16407;SDS011;8313;49.894;8.084;2023-06-10T06:45:09;8.70;;;7.73;;
16407;SDS011;8313;49.894;8.084;2023-06-10T06:47:35;7.93;;;7.17;;
16407;SDS011;8313;49.894;8.084;2023-06-10T06:50:00;8.30;;;7.50;;
16407;SDS011;8313;49.894;8.084;2023-06-10T06:52:27;8.27;;;7.47;;
16407;SDS011;8313;49.894;8.084;2023-06-10T06:54:53;8.37;;;7.57;;
16407;SDS011;8313;49.894;8.084;2023-06-10T06:57:19;9.13;;;6.70;;
16407;SDS011;8313;49.894;8.084;2023-06-10T06:59:44;8.67;;;7.30;;
16407;SDS011;8313;49.894;8.084;2023-06-10T07:02:10;7.43;;;6.83;;
16407;SDS011;8313;49.894;8.084;2023-06-10T07:04:36;6.90;;;6.20;;
16407;SDS011;8313;49.894;8.084;2023-06-10T07:07:01;7.17;;;6.47;;
16407;SDS011;8313;49.894;8.084;2023-06-10T07:09:27;8.37;;;7.67;;
16407;SDS011;8313;49.894;8.084;2023-06-10T07:11:53;8.47;;;7.57;;
16407;SDS011;8313;49.894;8.084;2023-06-10T07:14:19;8.70;;;7.90;;
16407;SDS011;8313;49.894;8.084;2023-06-10T07:16:44;8.37;;;7.50;;
16407;SDS011;8313;49.894;8.084;2023-06-10T07:19:11;8.80;;;7.93;;
16407;SDS011;8313;49.894;8.084;2023-06-10T07:21:36;8.53;;;7.73;;
16407;SDS011;8313;49.894;8.084;2023-06-10T07:24:03;8.70;;;8.00;;
16407;SDS011;8313;49.894;8.084;2023-06-10T07:26:29;8.13;;;7.33;;
16407;SDS011;8313;49.894;8.084;2023-06-10T07:28:54;8.90;;;7.77;;
16407;SDS011;8313;49.894;8.084;2023-06-10T07:31:20;8.50;;;7.70;;
16407;SDS011;8313;49.894;8.084;2023-06-10T07:33:46;8.33;;;7.60;;
16407;SDS011;8313;49.894;8.084;2023-06-10T07:36:12;8.03;;;7.27;;
16407;SDS011;8313;49.894;8.084;2023-06-10T07:38:38;8.97;;;8.07;;
16407;SDS011;8313;49.894;8.084;2023-06-10T07:41:03;9.73;;;8.10;;
16407;SDS011;8313;49.894;8.084;2023-06-10T07:43:29;9.23;;;8.30;;
16407;SDS011;8313;49.894;8.084;2023-06-10T07:45:55;7.70;;;7.10;;
16407;SDS011;8313;49.894;8.084;2023-06-10T07:48:21;8.13;;;7.43;;
16407;SDS011;8313;49.894;8.084;2023-06-10T07:50:47;8.60;;;7.80;;
16407;SDS011;8313;49.894;8.084;2023-06-10T07:53:13;8.87;;;8.00;;
16407;SDS011;8313;49.894;8.084;2023-06-10T07:55:38;8.90;;;8.20;;
16407;SDS011;8313;49.894;8.084;2023-06-10T07:58:04;8.10;;;7.50;;
16407;SDS011;8313;49.894;8.084;2023-06-10T08:00:30;8.63;;;7.87;;
16407;SDS011;8313;49.894;8.084;2023-06-10T08:02:56;8.87;;;7.97;;
16407;SDS011;8313;49.894;8.084;2023-06-10T08:05:22;9.00;;;7.80;;
16407;SDS011;8313;49.894;8.084;2023-06-10T08:07:51;9.53;;;8.70;;
16407;SDS011;8313;49.894;8.084;2023-06-10T08:10:16;8.83;;;8.03;;
16407;SDS011;8313;49.894;8.084;2023-06-10T08:12:42;9.13;;;7.50;;
16407;SDS011;8313;49.894;8.084;2023-06-10T08:15:08;8.63;;;7.77;;
16407;SDS011;8313;49.894;8.084;2023-06-10T08:17:37;8.53;;;7.73;;
16407;SDS011;8313;49.894;8.084;2023-06-10T08:20:03;10.63;;;7.70;;
16407;SDS011;8313;49.894;8.084;2023-06-10T08:22:30;8.63;;;7.90;;
16407;SDS011;8313;49.894;8.084;2023-06-10T08:24:56;8.50;;;7.80;;
16407;SDS011;8313;49.894;8.084;2023-06-10T08:27:22;8.93;;;7.83;;
16407;SDS011;8313;49.894;8.084;2023-06-10T08:29:48;9.20;;;8.40;;
16407;SDS011;8313;49.894;8.084;2023-06-10T08:32:13;9.03;;;8.10;;
16407;SDS011;8313;49.894;8.084;2023-06-10T08:34:39;8.37;;;7.67;;
16407;SDS011;8313;49.894;8.084;2023-06-10T08:37:06;8.80;;;8.00;;
16407;SDS011;8313;49.894;8.084;2023-06-10T08:39:32;9.37;;;8.53;;
16407;SDS011;8313;49.894;8.084;2023-06-10T08:42:04;9.27;;;8.37;;
16407;SDS011;8313;49.894;8.084;2023-06-10T08:44:36;9.53;;;7.87;;
16407;SDS011;8313;49.894;8.084;2023-06-10T08:47:06;9.17;;;8.37;;
16407;SDS011;8313;49.894;8.084;2023-06-10T08:49:38;9.07;;;8.23;;
16407;SDS011;8313;49.894;8.084;2023-06-10T08:52:06;8.77;;;8.05;;
16407;SDS011;8313;49.894;8.084;2023-06-10T08:54:33;8.27;;;7.57;;
16407;SDS011;8313;49.894;8.084;2023-06-10T08:57:03;9.53;;;8.60;;
16407;SDS011;8313;49.894;8.084;2023-06-10T08:59:31;8.70;;;7.95;;
16407;SDS011;8313;49.894;8.084;2023-06-10T09:01:57;9.02;;;8.07;;
16407;SDS011;8313;49.894;8.084;2023-06-10T09:04:23;9.18;;;8.27;;
16407;SDS011;8313;49.894;8.084;2023-06-10T09:06:49;9.68;;;8.88;;
16407;SDS011;8313;49.894;8.084;2023-06-10T09:09:17;9.00;;;8.25;;
16407;SDS011;8313;49.894;8.084;2023-06-10T09:11:45;9.38;;;8.48;;
16407;SDS011;8313;49.894;8.084;2023-06-10T09:14:11;10.00;;;9.07;;
16407;SDS011;8313;49.894;8.084;2023-06-10T09:16:40;9.20;;;8.40;;
16407;SDS011;8313;49.894;8.084;2023-06-10T09:19:07;9.90;;;8.60;;
16407;SDS011;8313;49.894;8.084;2023-06-10T09:21:36;8.77;;;8.00;;
16407;SDS011;8313;49.894;8.084;2023-06-10T09:24:02;10.20;;;9.40;;
16407;SDS011;8313;49.894;8.084;2023-06-10T09:26:29;10.40;;;9.50;;
16407;SDS011;8313;49.894;8.084;2023-06-10T09:29:13;9.18;;;8.07;;
16407;SDS011;8313;49.894;8.084;2023-06-10T09:31:39;8.60;;;7.90;;
16407;SDS011;8313;49.894;8.084;2023-06-10T09:34:13;9.55;;;8.75;;
16407;SDS011;8313;49.894;8.084;2023-06-10T09:36:40;9.95;;;9.13;;
16407;SDS011;8313;49.894;8.084;2023-06-10T09:39:16;10.95;;;9.07;;
16407;SDS011;8313;49.894;8.084;2023-06-10T09:41:43;9.43;;;8.73;;
16407;SDS011;8313;49.894;8.084;2023-06-10T09:44:13;10.15;;;8.77;;
16407;SDS011;8313;49.894;8.084;2023-06-10T09:46:47;9.60;;;8.90;;
16407;SDS011;8313;49.894;8.084;2023-06-10T09:49:16;10.10;;;9.20;;
16407;SDS011;8313;49.894;8.084;2023-06-10T09:54:16;10.52;;;9.68;;
16407;SDS011;8313;49.894;8.084;2023-06-10T09:56:43;9.95;;;9.15;;
16407;SDS011;8313;49.894;8.084;2023-06-10T09:59:16;10.52;;;9.63;;
16407;SDS011;8313;49.894;8.084;2023-06-10T10:01:56;9.05;;;8.25;;
16407;SDS011;8313;49.894;8.084;2023-06-10T10:04:25;10.85;;;9.98;;
16407;SDS011;8313;49.894;8.084;2023-06-10T10:06:52;9.25;;;8.32;;
16407;SDS011;8313;49.894;8.084;2023-06-10T10:09:17;9.57;;;8.90;;
16407;SDS011;8313;49.894;8.084;2023-06-10T10:11:43;9.77;;;9.07;;
16407;SDS011;8313;49.894;8.084;2023-06-10T10:14:09;10.00;;;9.20;;
16407;SDS011;8313;49.894;8.084;2023-06-10T10:16:36;10.63;;;9.77;;
16407;SDS011;8313;49.894;8.084;2023-06-10T10:19:12;9.45;;;8.65;;
16407;SDS011;8313;49.894;8.084;2023-06-10T10:21:50;9.60;;;8.77;;
16407;SDS011;8313;49.894;8.084;2023-06-10T10:24:20;10.20;;;9.30;;
16407;SDS011;8313;49.894;8.084;2023-06-10T10:26:48;11.63;;;8.63;;
16407;SDS011;8313;49.894;8.084;2023-06-10T10:29:31;10.05;;;8.98;;
16407;SDS011;8313;49.894;8.084;2023-06-10T10:32:01;9.65;;;8.95;;
16407;SDS011;8313;49.894;8.084;2023-06-10T10:34:53;8.85;;;8.15;;
16407;SDS011;8313;49.894;8.084;2023-06-10T10:37:17;9.73;;;8.93;;
16407;SDS011;8313;49.894;8.084;2023-06-10T10:39:45;9.73;;;8.90;;
16407;SDS011;8313;49.894;8.084;2023-06-10T10:42:10;9.88;;;8.98;;
16407;SDS011;8313;49.894;8.084;2023-06-10T10:44:37;8.98;;;8.27;;
16407;SDS011;8313;49.894;8.084;2023-06-10T10:47:04;9.57;;;8.77;;
16407;SDS011;8313;49.894;8.084;2023-06-10T10:49:32;8.73;;;7.95;;
16407;SDS011;8313;49.894;8.084;2023-06-10T10:52:00;8.75;;;8.05;;
16407;SDS011;8313;49.894;8.084;2023-06-10T10:59:59;8.90;;;8.15;;
16407;SDS011;8313;49.894;8.084;2023-06-10T11:05:07;9.32;;;8.43;;
16407;SDS011;8313;49.894;8.084;2023-06-10T11:07:34;9.50;;;8.68;;
16407;SDS011;8313;49.894;8.084;2023-06-10T11:10:10;9.43;;;8.63;;
16407;SDS011;8313;49.894;8.084;2023-06-10T11:15:06;9.23;;;8.43;;
16407;SDS011;8313;49.894;8.084;2023-06-10T11:17:32;9.70;;;8.80;;
16407;SDS011;8313;49.894;8.084;2023-06-10T11:20:00;9.52;;;8.68;;
16407;SDS011;8313;49.894;8.084;2023-06-10T11:22:29;9.48;;;8.77;;
16407;SDS011;8313;49.894;8.084;2023-06-10T11:24:55;9.77;;;8.88;;
16407;SDS011;8313;49.894;8.084;2023-06-10T11:27:24;8.45;;;7.82;;
16407;SDS011;8313;49.894;8.084;2023-06-10T11:32:31;8.30;;;7.68;;
16407;SDS011;8313;49.894;8.084;2023-06-10T11:34:58;9.38;;;8.57;;
16407;SDS011;8313;49.894;8.084;2023-06-10T11:37:24;9.23;;;8.40;;
16407;SDS011;8313;49.894;8.084;2023-06-10T11:39:53;9.30;;;8.50;;
16407;SDS011;8313;49.894;8.084;2023-06-10T11:42:19;8.73;;;8.10;;
16407;SDS011;8313;49.894;8.084;2023-06-10T11:44:49;9.05;;;8.35;;
16407;SDS011;8313;49.894;8.084;2023-06-10T11:47:16;8.75;;;8.05;;
16407;SDS011;8313;49.894;8.084;2023-06-10T11:49:42;9.57;;;8.77;;
16407;SDS011;8313;49.894;8.084;2023-06-10T11:52:08;9.43;;;8.50;;
16407;SDS011;8313;49.894;8.084;2023-06-10T11:54:34;9.38;;;8.68;;
16407;SDS011;8313;49.894;8.084;2023-06-10T11:56:59;9.82;;;9.02;;
16407;SDS011;8313;49.894;8.084;2023-06-10T11:59:28;9.90;;;9.05;;
16407;SDS011;8313;49.894;8.084;2023-06-10T12:01:55;11.07;;;10.10;;
16407;SDS011;8313;49.894;8.084;2023-06-10T12:04:21;10.27;;;9.48;;
16407;SDS011;8313;49.894;8.084;2023-06-10T12:06:48;9.27;;;8.48;;
16407;SDS011;8313;49.894;8.084;2023-06-10T12:19:57;10.50;;;9.50;;
16407;SDS011;8313;49.894;8.084;2023-06-10T12:22:24;9.82;;;8.93;;
16407;SDS011;8313;49.894;8.084;2023-06-10T12:25:00;9.85;;;9.13;;
16407;SDS011;8313;49.894;8.084;2023-06-10T12:27:28;9.80;;;9.10;;
16407;SDS011;8313;49.894;8.084;2023-06-10T12:29:55;8.93;;;8.18;;
16407;SDS011;8313;49.894;8.084;2023-06-10T12:32:35;9.73;;;9.05;;
16407;SDS011;8313;49.894;8.084;2023-06-10T12:35:05;9.70;;;8.80;;
16407;SDS011;8313;49.894;8.084;2023-06-10T12:37:31;9.30;;;8.60;;
16407;SDS011;8313;49.894;8.084;2023-06-10T12:40:01;10.18;;;9.38;;
16407;SDS011;8313;49.894;8.084;2023-06-10T12:42:29;10.02;;;9.23;;
16407;SDS011;8313;49.894;8.084;2023-06-10T12:44:56;10.40;;;9.60;;
16407;SDS011;8313;49.894;8.084;2023-06-10T12:49:59;8.90;;;8.20;;
16407;SDS011;8313;49.894;8.084;2023-06-10T12:52:25;8.88;;;8.18;;
16407;SDS011;8313;49.894;8.084;2023-06-10T12:54:51;8.75;;;8.05;;
16407;SDS011;8313;49.894;8.084;2023-06-10T12:57:19;8.82;;;8.10;;
16407;SDS011;8313;49.894;8.084;2023-06-10T12:59:44;8.80;;;8.10;;
16407;SDS011;8313;49.894;8.084;2023-06-10T13:02:15;9.68;;;8.90;;
16407;SDS011;8313;49.894;8.084;2023-06-10T13:04:43;8.20;;;7.60;;
16407;SDS011;8313;49.894;8.084;2023-06-10T13:07:09;8.95;;;8.07;;
16407;SDS011;8313;49.894;8.084;2023-06-10T13:09:35;8.38;;;7.57;;
16407;SDS011;8313;49.894;8.084;2023-06-10T13:12:02;8.27;;;7.63;;
16407;SDS011;8313;49.894;8.084;2023-06-10T13:14:27;7.32;;;6.72;;
16407;SDS011;8313;49.894;8.084;2023-06-10T13:16:54;9.90;;;7.45;;
16407;SDS011;8313;49.894;8.084;2023-06-10T13:19:20;7.90;;;7.40;;
16407;SDS011;8313;49.894;8.084;2023-06-10T13:21:49;7.38;;;6.88;;
16407;SDS011;8313;49.894;8.084;2023-06-10T13:24:14;7.93;;;7.22;;
16407;SDS011;8313;49.894;8.084;2023-06-10T13:26:40;7.53;;;6.93;;
16407;SDS011;8313;49.894;8.084;2023-06-10T13:29:06;9.85;;;7.93;;
16407;SDS011;8313;49.894;8.084;2023-06-10T13:31:33;8.50;;;7.80;;
16407;SDS011;8313;49.894;8.084;2023-06-10T13:33:59;9.02;;;8.23;;
16407;SDS011;8313;49.894;8.084;2023-06-10T13:36:24;8.50;;;7.50;;
16407;SDS011;8313;49.894;8.084;2023-06-10T13:38:50;7.88;;;7.30;;
16407;SDS011;8313;49.894;8.084;2023-06-10T13:41:16;8.23;;;7.60;;
16407;SDS011;8313;49.894;8.084;2023-06-10T13:43:42;7.35;;;6.75;;
16407;SDS011;8313;49.894;8.084;2023-06-10T13:46:07;8.00;;;7.20;;
16407;SDS011;8313;49.894;8.084;2023-06-10T13:48:33;7.18;;;6.68;;
16407;SDS011;8313;49.894;8.084;2023-06-10T13:50:59;9.52;;;8.73;;
16407;SDS011;8313;49.894;8.084;2023-06-10T13:53:25;7.68;;;7.03;;
16407;SDS011;8313;49.894;8.084;2023-06-10T13:55:51;6.82;;;6.20;;
16407;SDS011;8313;49.894;8.084;2023-06-10T13:58:16;6.40;;;5.97;;
16407;SDS011;8313;49.894;8.084;2023-06-10T14:00:42;7.78;;;7.18;;
16407;SDS011;8313;49.894;8.084;2023-06-10T14:03:07;9.68;;;7.35;;
16407;SDS011;8313;49.894;8.084;2023-06-10T14:05:33;8.70;;;8.10;;
16407;SDS011;8313;49.894;8.084;2023-06-10T14:07:59;7.82;;;7.22;;
16407;SDS011;8313;49.894;8.084;2023-06-10T14:10:25;7.50;;;6.95;;
16407;SDS011;8313;49.894;8.084;2023-06-10T14:12:51;8.20;;;7.57;;
16407;SDS011;8313;49.894;8.084;2023-06-10T14:15:16;7.93;;;7.28;;
16407;SDS011;8313;49.894;8.084;2023-06-10T14:17:42;7.90;;;7.30;;
16407;SDS011;8313;49.894;8.084;2023-06-10T14:20:08;7.20;;;6.60;;
16407;SDS011;8313;49.894;8.084;2023-06-10T14:22:34;7.55;;;6.95;;
16407;SDS011;8313;49.894;8.084;2023-06-10T14:25:00;8.77;;;8.05;;
16407;SDS011;8313;49.894;8.084;2023-06-10T14:27:25;7.35;;;6.85;;
16407;SDS011;8313;49.894;8.084;2023-06-10T14:29:51;7.90;;;7.30;;
16407;SDS011;8313;49.894;8.084;2023-06-10T14:32:16;7.10;;;6.60;;
16407;SDS011;8313;49.894;8.084;2023-06-10T14:34:42;7.25;;;6.65;;
16407;SDS011;8313;49.894;8.084;2023-06-10T14:37:09;8.00;;;7.40;;
16407;SDS011;8313;49.894;8.084;2023-06-10T14:39:35;8.07;;;7.47;;
16407;SDS011;8313;49.894;8.084;2023-06-10T14:42:01;7.28;;;6.75;;
16407;SDS011;8313;49.894;8.084;2023-06-10T14:44:27;7.75;;;7.15;;
16407;SDS011;8313;49.894;8.084;2023-06-10T14:46:52;9.25;;;8.45;;
16407;SDS011;8313;49.894;8.084;2023-06-10T14:49:18;8.48;;;7.88;;
16407;SDS011;8313;49.894;8.084;2023-06-10T14:51:44;9.07;;;8.18;;
16407;SDS011;8313;49.894;8.084;2023-06-10T14:54:10;8.13;;;7.32;;
16407;SDS011;8313;49.894;8.084;2023-06-10T14:56:36;8.38;;;7.78;;
16407;SDS011;8313;49.894;8.084;2023-06-10T14:59:02;8.13;;;7.53;;
16407;SDS011;8313;49.894;8.084;2023-06-10T15:01:28;8.43;;;7.72;;
16407;SDS011;8313;49.894;8.084;2023-06-10T15:03:53;7.35;;;6.85;;
16407;SDS011;8313;49.894;8.084;2023-06-10T15:06:19;8.18;;;7.57;;
16407;SDS011;8313;49.894;8.084;2023-06-10T15:08:47;8.13;;;7.53;;
16407;SDS011;8313;49.894;8.084;2023-06-10T15:11:16;8.50;;;7.80;;
16407;SDS011;8313;49.894;8.084;2023-06-10T15:13:42;9.05;;;8.35;;
16407;SDS011;8313;49.894;8.084;2023-06-10T15:16:08;9.27;;;8.23;;
16407;SDS011;8313;49.894;8.084;2023-06-10T15:18:34;7.68;;;6.88;;
16407;SDS011;8313;49.894;8.084;2023-06-10T15:20:59;8.43;;;7.72;;
16407;SDS011;8313;49.894;8.084;2023-06-10T15:23:25;7.88;;;7.18;;
16407;SDS011;8313;49.894;8.084;2023-06-10T15:25:51;8.32;;;7.63;;
16407;SDS011;8313;49.894;8.084;2023-06-10T15:28:17;9.90;;;9.10;;